createdAt,value
2023-02-06T00:00:16.922Z,37.56
2023-02-06T00:02:43.657Z,37.56
2023-02-06T00:05:10.346Z,38.07
2023-02-06T00:07:37.120Z,37.98
2023-02-06T00:10:06.647Z,37.89
2023-02-06T00:12:33.687Z,37.98
2023-02-06T00:15:00.430Z,38.04
2023-02-06T00:17:27.316Z,37.80
2023-02-06T00:19:54.011Z,38.22
2023-02-06T00:22:21.111Z,37.78
2023-02-06T00:24:48.027Z,38.18
2023-02-06T00:27:14.675Z,37.82
2023-02-06T00:29:41.422Z,37.82
2023-02-06T00:32:08.403Z,37.83
2023-02-06T00:34:35.137Z,38.07
2023-02-06T00:37:01.873Z,38.16
2023-02-06T00:39:28.865Z,38.23
2023-02-06T00:41:55.920Z,37.96
2023-02-06T00:44:23.157Z,38.43
2023-02-06T00:46:50.051Z,38.40
2023-02-06T00:49:16.923Z,38.59
2023-02-06T00:51:43.575Z,38.45
2023-02-06T00:54:10.345Z,38.48
2023-02-06T00:56:37.504Z,38.52
2023-02-06T00:59:04.458Z,38.82
2023-02-06T01:01:31.132Z,38.58
2023-02-06T01:03:57.883Z,38.94
2023-02-06T01:06:24.639Z,38.86
2023-02-06T01:08:53.569Z,38.85
2023-02-06T01:11:21.642Z,39.31
2023-02-06T01:13:48.691Z,39.35
2023-02-06T01:16:16.862Z,39.04
2023-02-06T01:18:43.866Z,39.34
2023-02-06T01:21:12.654Z,39.34
2023-02-06T01:23:40.938Z,39.36
2023-02-06T01:26:08.893Z,39.89
2023-02-06T01:28:36.904Z,39.45
2023-02-06T01:31:11.415Z,39.73
2023-02-06T01:33:38.477Z,39.54
2023-02-06T01:36:05.377Z,39.45
2023-02-06T01:38:32.112Z,39.76
2023-02-06T01:40:59.901Z,39.47
2023-02-06T01:43:28.817Z,39.67
2023-02-06T01:45:55.972Z,39.42
2023-02-06T01:48:30.309Z,39.86
2023-02-06T01:50:58.003Z,39.41
2023-02-06T01:53:25.258Z,39.85
2023-02-06T01:55:53.398Z,39.45
2023-02-06T01:58:24.569Z,39.45
2023-02-06T02:00:51.473Z,39.66
2023-02-06T02:03:18.284Z,39.83
2023-02-06T02:05:47.408Z,39.63
2023-02-06T02:08:17.262Z,40.01
2023-02-06T02:10:44.459Z,40.03
2023-02-06T02:13:11.270Z,40.05
2023-02-06T02:15:41.061Z,40.23
2023-02-06T02:18:10.924Z,39.93
2023-02-06T02:20:39.321Z,39.86
2023-02-06T02:23:09.203Z,40.12
2023-02-06T02:25:38.987Z,39.94
2023-02-06T02:28:09.112Z,40.15
2023-02-06T02:30:39.248Z,40.20
2023-02-06T02:33:12.115Z,39.97
2023-02-06T02:35:46.847Z,39.94
2023-02-06T02:38:16.994Z,40.03
2023-02-06T02:40:48.096Z,40.21
2023-02-06T02:43:17.851Z,40.09
2023-02-06T02:45:47.942Z,40.23
2023-02-06T02:48:17.048Z,40.28
2023-02-06T02:50:44.142Z,40.51
2023-02-06T02:53:11.597Z,40.51
2023-02-06T02:55:38.611Z,40.11
2023-02-06T02:58:07.588Z,40.33
2023-02-06T03:00:37.068Z,40.18
2023-02-06T03:03:05.170Z,40.12
2023-02-06T03:05:33.451Z,40.40
2023-02-06T03:08:00.572Z,40.57
2023-02-06T03:10:32.393Z,40.34
2023-02-06T03:13:02.193Z,40.53
2023-02-06T03:15:32.082Z,40.33
2023-02-06T03:18:01.484Z,40.49
2023-02-06T03:20:28.904Z,40.70
2023-02-06T03:22:57.040Z,40.43
2023-02-06T03:25:28.800Z,40.60
2023-02-06T03:27:56.188Z,40.73
2023-02-06T03:30:24.199Z,40.53
2023-02-06T03:32:54.522Z,40.36
2023-02-06T03:35:22.771Z,40.60
2023-02-06T03:37:49.952Z,40.51
2023-02-06T03:40:17.301Z,40.55
2023-02-06T03:42:48.782Z,40.79
2023-02-06T03:45:17.593Z,40.54
2023-02-06T03:47:45.352Z,40.89
2023-02-06T03:50:12.871Z,40.71
2023-02-06T03:52:41.411Z,40.79
2023-02-06T03:55:10.562Z,39.09
2023-02-06T03:57:42.299Z,39.51
2023-02-06T04:00:09.518Z,40.48
2023-02-06T04:02:37.249Z,39.04
2023-02-06T04:05:04.040Z,40.35
2023-02-06T04:07:33.572Z,40.60
2023-02-06T04:10:00.266Z,40.46
2023-02-06T04:12:27.696Z,40.65
2023-02-06T04:14:54.489Z,40.55
2023-02-06T04:17:40.720Z,40.18
2023-02-06T04:20:09.191Z,40.50
2023-02-06T04:22:36.232Z,40.65
2023-02-06T04:25:03.415Z,40.60
2023-02-06T04:27:32.551Z,40.57
2023-02-06T04:29:59.292Z,40.65
2023-02-06T04:32:25.988Z,40.62
2023-02-06T04:34:52.684Z,40.92
2023-02-06T04:37:19.417Z,40.68
2023-02-06T04:39:47.277Z,40.64
2023-02-06T04:42:14.016Z,40.73
2023-02-06T04:44:40.736Z,40.93
2023-02-06T04:47:08.036Z,40.89
2023-02-06T04:49:36.983Z,40.76
2023-02-06T04:52:03.843Z,40.55
2023-02-06T04:54:32.637Z,40.81
2023-02-06T04:56:59.490Z,40.83
2023-02-06T04:59:26.334Z,41.06
2023-02-06T05:01:53.054Z,40.74
2023-02-06T05:04:19.835Z,41.20
2023-02-06T05:06:46.523Z,41.26
2023-02-06T05:09:13.267Z,41.23
2023-02-06T05:11:39.980Z,41.20
2023-02-06T05:14:06.710Z,41.53
2023-02-06T05:16:33.501Z,41.52
2023-02-06T05:19:00.277Z,41.23
2023-02-06T05:21:27.354Z,41.63
2023-02-06T05:23:54.477Z,41.45
2023-02-06T05:26:21.580Z,41.34
2023-02-06T05:28:48.458Z,41.20
2023-02-06T05:31:20.083Z,41.62
2023-02-06T05:33:51.103Z,41.67
2023-02-06T05:36:19.450Z,41.92
2023-02-06T05:38:47.256Z,41.98
2023-02-06T05:41:14.230Z,41.79
2023-02-06T05:43:40.941Z,42.25
2023-02-06T05:46:08.026Z,42.12
2023-02-06T05:48:37.205Z,42.25
2023-02-06T05:51:04.056Z,42.22
2023-02-06T05:53:30.760Z,42.44
2023-02-06T05:55:57.648Z,42.28
2023-02-06T05:58:24.519Z,42.59
2023-02-06T06:00:51.221Z,42.67
2023-02-06T06:03:17.924Z,42.32
2023-02-06T06:05:45.345Z,42.21
2023-02-06T06:08:12.529Z,42.49
2023-02-06T06:10:39.345Z,42.64
2023-02-06T06:13:08.611Z,42.11
2023-02-06T06:15:35.613Z,42.40
2023-02-06T06:18:03.396Z,41.94
2023-02-06T06:20:30.067Z,42.24
2023-02-06T06:22:56.798Z,41.80
2023-02-06T06:25:23.541Z,42.23
2023-02-06T06:27:50.300Z,42.03
2023-02-06T06:30:17.116Z,41.93
2023-02-06T06:32:43.775Z,41.46
2023-02-06T06:35:10.450Z,41.59
2023-02-06T06:37:37.185Z,42.00
2023-02-06T06:40:04.105Z,41.61
2023-02-06T06:42:30.796Z,41.85
2023-02-06T06:44:57.569Z,41.54
2023-02-06T06:47:24.575Z,41.28
2023-02-06T06:49:51.431Z,41.06
2023-02-06T06:52:25.006Z,40.57
2023-02-06T06:54:53.145Z,40.53
2023-02-06T06:57:20.541Z,40.24
2023-02-06T06:59:47.273Z,40.40
2023-02-06T07:02:14.282Z,40.22
2023-02-06T07:04:41.055Z,40.15
2023-02-06T07:07:08.568Z,40.45
2023-02-06T07:09:35.331Z,39.89
2023-02-06T07:12:02.115Z,40.17
2023-02-06T07:14:29.340Z,40.21
2023-02-06T07:16:56.547Z,39.77
2023-02-06T07:19:23.321Z,40.47
2023-02-06T07:21:50.113Z,40.57
2023-02-06T07:24:16.996Z,40.07
2023-02-06T07:26:43.973Z,39.93
2023-02-06T07:29:11.091Z,40.45
2023-02-06T07:31:37.893Z,39.00
2023-02-06T07:34:07.165Z,38.65
2023-02-06T07:36:33.868Z,38.61
2023-02-06T07:39:02.057Z,38.04
2023-02-06T07:41:29.172Z,37.91
2023-02-06T07:43:55.870Z,38.20
2023-02-06T07:46:23.058Z,34.39
2023-02-06T07:48:50.030Z,33.58
2023-02-06T07:51:17.274Z,33.80
2023-02-06T07:53:44.122Z,34.53
2023-02-06T07:56:13.000Z,34.37
2023-02-06T07:58:39.869Z,35.16
2023-02-06T08:01:07.301Z,35.65
2023-02-06T08:03:34.130Z,35.63
2023-02-06T08:06:00.945Z,35.95
2023-02-06T08:08:27.675Z,36.05
2023-02-06T08:10:54.461Z,36.22
2023-02-06T08:13:21.569Z,36.11
2023-02-06T08:15:48.295Z,35.93
2023-02-06T08:18:17.310Z,36.40
2023-02-06T08:20:44.137Z,36.03
2023-02-06T08:23:10.989Z,36.57
2023-02-06T08:25:38.504Z,36.33
2023-02-06T08:28:05.791Z,36.28
2023-02-06T08:30:34.732Z,36.58
2023-02-06T08:33:01.661Z,36.42
2023-02-06T08:35:28.769Z,36.16
2023-02-06T08:37:55.609Z,36.49
2023-02-06T08:40:22.426Z,37.11
2023-02-06T08:42:51.462Z,36.82
2023-02-06T08:45:18.719Z,36.63
2023-02-06T08:47:45.961Z,36.15
2023-02-06T08:50:12.853Z,36.11
2023-02-06T08:52:42.526Z,36.45
2023-02-06T08:55:09.616Z,36.11
2023-02-06T08:57:36.425Z,35.99
2023-02-06T09:00:04.215Z,36.16
2023-02-06T09:02:30.957Z,35.91
2023-02-06T09:04:57.850Z,36.16
2023-02-06T09:07:24.678Z,36.22
2023-02-06T09:09:51.657Z,35.92
2023-02-06T09:12:18.624Z,36.18
2023-02-06T09:14:45.910Z,35.81
2023-02-06T09:17:12.791Z,35.62
2023-02-06T09:19:39.781Z,35.60
2023-02-06T09:22:08.741Z,36.01
2023-02-06T09:24:35.543Z,35.72
2023-02-06T09:27:02.295Z,36.14
2023-02-06T09:29:32.821Z,35.60
2023-02-06T09:32:02.075Z,35.95
2023-02-06T09:34:29.258Z,35.78
2023-02-06T09:36:57.240Z,35.79
2023-02-06T09:39:24.479Z,35.54
2023-02-06T09:41:55.291Z,35.72
2023-02-06T09:44:22.493Z,35.87
2023-02-06T09:46:53.254Z,35.38
2023-02-06T09:49:22.757Z,35.75
2023-02-06T09:51:53.078Z,35.65
2023-02-06T09:54:22.928Z,35.59
2023-02-06T09:56:52.888Z,35.38
2023-02-06T09:59:23.113Z,35.49
2023-02-06T10:01:53.122Z,35.44
2023-02-06T10:04:23.252Z,34.89
2023-02-06T10:06:50.428Z,35.08
2023-02-06T10:09:19.237Z,34.96
2023-02-06T10:11:50.083Z,35.33
2023-02-06T10:14:22.470Z,35.00
2023-02-06T10:16:53.731Z,34.78
2023-02-06T10:19:21.935Z,34.80
2023-02-06T10:21:52.156Z,35.24
2023-02-06T10:24:22.127Z,35.27
2023-02-06T10:26:50.464Z,35.47
2023-02-06T10:29:21.634Z,34.89
2023-02-06T10:31:50.726Z,34.66
2023-02-06T10:34:20.608Z,34.79
2023-02-06T10:36:48.725Z,35.03
2023-02-06T10:39:15.859Z,34.93
2023-02-06T10:41:45.808Z,35.05
2023-02-06T10:44:15.830Z,34.90
2023-02-06T10:46:46.284Z,35.15
2023-02-06T10:49:21.028Z,34.94
2023-02-06T10:51:52.957Z,34.72
2023-02-06T10:54:23.072Z,35.28
2023-02-06T10:56:52.381Z,34.81
2023-02-06T10:59:23.201Z,34.91
2023-02-06T11:01:52.259Z,35.20
2023-02-06T11:04:34.301Z,34.83
2023-02-06T11:07:04.689Z,35.24
2023-02-06T11:09:31.585Z,35.30
2023-02-06T11:11:59.096Z,34.82
2023-02-06T11:14:32.306Z,35.32
2023-02-06T11:17:00.368Z,35.08
2023-02-06T11:19:30.472Z,34.94
2023-02-06T11:21:57.695Z,35.32
2023-02-06T11:24:25.460Z,35.05
2023-02-06T11:26:55.267Z,35.22
2023-02-06T11:29:26.916Z,35.31
2023-02-06T11:31:57.334Z,35.58
2023-02-06T11:34:27.701Z,35.32
2023-02-06T11:36:56.142Z,35.45
2023-02-06T11:39:23.279Z,35.78
2023-02-06T11:41:53.303Z,36.14
2023-02-06T11:44:20.412Z,35.49
2023-02-06T11:46:47.241Z,35.54
2023-02-06T11:49:17.140Z,35.24
2023-02-06T11:51:47.103Z,35.20
2023-02-06T11:54:21.798Z,35.19
2023-02-06T11:56:51.680Z,35.54
2023-02-06T11:59:23.465Z,35.72
2023-02-06T12:01:50.681Z,36.87
2023-02-06T12:04:24.415Z,38.42
2023-02-06T12:06:54.752Z,40.32
2023-02-06T12:09:21.781Z,39.85
2023-02-06T12:11:48.925Z,39.24
2023-02-06T12:14:20.890Z,39.42
2023-02-06T12:16:47.770Z,38.98
2023-02-06T12:19:17.490Z,37.88
2023-02-06T12:21:47.693Z,37.50
2023-02-06T12:24:15.279Z,37.62
2023-02-06T12:26:43.148Z,37.09
2023-02-06T12:29:13.072Z,37.25
2023-02-06T12:31:41.938Z,37.29
2023-02-06T12:34:12.910Z,37.02
2023-02-06T12:36:51.360Z,36.66
2023-02-06T12:39:20.185Z,36.80
2023-02-06T12:41:50.140Z,36.90
2023-02-06T12:44:19.976Z,36.91
2023-02-06T12:46:50.281Z,36.78
2023-02-06T12:49:23.775Z,36.25
2023-02-06T12:51:53.714Z,36.54
2023-02-06T12:54:23.155Z,36.40
2023-02-06T12:56:52.590Z,36.09
2023-02-06T12:59:21.355Z,36.16
2023-02-06T13:01:52.258Z,35.98
2023-02-06T13:04:23.924Z,36.07
2023-02-06T13:06:54.523Z,35.91
2023-02-06T13:09:25.045Z,35.87
2023-02-06T13:11:52.518Z,35.50
2023-02-06T13:14:22.365Z,35.53
2023-02-06T13:16:51.069Z,35.47
2023-02-06T13:19:21.307Z,35.56
2023-02-06T13:21:51.466Z,35.29
2023-02-06T13:24:19.548Z,34.81
2023-02-06T13:26:48.430Z,35.08
2023-02-06T13:29:18.671Z,34.87
2023-02-06T13:31:45.473Z,34.90
2023-02-06T13:34:16.440Z,34.83
2023-02-06T13:36:43.571Z,34.85
2023-02-06T13:39:13.407Z,34.38
2023-02-06T13:41:42.580Z,34.34
2023-02-06T13:44:12.729Z,34.51
2023-02-06T13:46:42.851Z,34.05
2023-02-06T13:49:12.744Z,34.17
2023-02-06T13:51:43.080Z,34.12
2023-02-06T13:54:13.007Z,33.78
2023-02-06T13:56:41.855Z,33.97
2023-02-06T13:59:11.771Z,33.82
2023-02-06T14:01:38.616Z,33.87
2023-02-06T14:04:07.697Z,34.26
2023-02-06T14:06:34.763Z,33.76
2023-02-06T14:09:03.382Z,33.95
2023-02-06T14:11:33.491Z,34.03
2023-02-06T14:14:03.704Z,33.50
2023-02-06T14:16:31.006Z,33.47
2023-02-06T14:18:58.119Z,33.43
2023-02-06T14:21:28.022Z,33.86
2023-02-06T14:23:57.864Z,33.47
2023-02-06T14:26:26.177Z,33.53
2023-02-06T14:28:56.155Z,33.27
2023-02-06T14:31:30.969Z,33.82
2023-02-06T14:34:00.935Z,33.37
2023-02-06T14:36:30.919Z,33.63
2023-02-06T14:39:02.764Z,33.25
2023-02-06T14:41:31.076Z,33.78
2023-02-06T14:43:59.175Z,33.14
2023-02-06T14:46:27.512Z,33.26
2023-02-06T14:48:57.434Z,33.37
2023-02-06T14:51:25.556Z,33.54
2023-02-06T14:53:54.182Z,33.66
2023-02-06T14:56:24.256Z,33.32
2023-02-06T14:58:51.646Z,33.23
2023-02-06T15:01:19.028Z,33.59
2023-02-06T15:03:46.843Z,33.70
2023-02-06T15:06:26.080Z,33.70
2023-02-06T15:08:53.196Z,33.45
2023-02-06T15:11:21.902Z,33.34
2023-02-06T15:13:50.567Z,33.53
2023-02-06T15:16:17.615Z,33.75
2023-02-06T15:18:44.847Z,33.64
2023-02-06T15:21:14.227Z,34.07
2023-02-06T15:23:44.178Z,34.57
2023-02-06T15:26:17.179Z,34.46
2023-02-06T15:28:44.403Z,34.06
2023-02-06T15:31:14.268Z,33.53
2023-02-06T15:33:41.275Z,33.70
2023-02-06T15:36:08.430Z,34.45
2023-02-06T15:38:39.942Z,34.57
2023-02-06T15:41:07.360Z,34.81
2023-02-06T15:43:34.626Z,34.63
2023-02-06T15:46:02.650Z,34.80
2023-02-06T15:48:34.703Z,34.99
2023-02-06T15:51:02.923Z,34.52
2023-02-06T15:53:32.661Z,34.87
2023-02-06T15:56:00.626Z,34.62
2023-02-06T15:58:27.688Z,34.57
2023-02-06T16:00:57.585Z,34.53
2023-02-06T16:03:26.236Z,34.71
2023-02-06T16:05:53.246Z,34.85
2023-02-06T16:08:21.178Z,34.61
2023-02-06T16:10:50.202Z,34.67
2023-02-06T16:13:20.225Z,34.57
2023-02-06T16:15:50.002Z,34.47
2023-02-06T16:18:20.562Z,34.69
2023-02-06T16:20:47.560Z,34.54
2023-02-06T16:23:17.381Z,34.35
2023-02-06T16:25:45.447Z,34.54
2023-02-06T16:28:15.298Z,34.30
2023-02-06T16:30:42.621Z,34.48
2023-02-06T16:33:17.057Z,34.66
2023-02-06T16:35:43.997Z,34.45
2023-02-06T16:38:11.255Z,34.20
2023-02-06T16:40:38.471Z,33.92
2023-02-06T16:43:10.665Z,34.04
2023-02-06T16:45:38.326Z,33.85
2023-02-06T16:48:10.300Z,33.95
2023-02-06T16:50:38.776Z,33.93
2023-02-06T16:53:07.158Z,33.61
2023-02-06T16:55:36.623Z,33.52
2023-02-06T16:58:03.815Z,33.72
2023-02-06T17:00:31.802Z,33.73
2023-02-06T17:02:59.179Z,33.68
2023-02-06T17:05:26.890Z,33.29
2023-02-06T17:07:54.233Z,33.67
2023-02-06T17:10:23.659Z,33.63
2023-02-06T17:12:50.546Z,33.20
2023-02-06T17:15:18.445Z,33.22
2023-02-06T17:17:47.960Z,33.54
2023-02-06T17:20:18.322Z,33.50
2023-02-06T17:22:45.402Z,33.18
2023-02-06T17:25:12.676Z,33.63
2023-02-06T17:27:39.597Z,33.49
2023-02-06T17:30:06.820Z,33.50
2023-02-06T17:32:33.940Z,33.50
2023-02-06T17:35:02.761Z,33.65
2023-02-06T17:37:29.553Z,33.57
2023-02-06T17:39:56.418Z,33.32
2023-02-06T17:42:24.421Z,33.24
2023-02-06T17:44:51.351Z,33.34
2023-02-06T17:47:18.227Z,33.69
2023-02-06T17:49:47.226Z,33.61
2023-02-06T17:52:14.242Z,33.86
2023-02-06T17:54:41.220Z,33.88
2023-02-06T17:57:08.410Z,33.82
2023-02-06T17:59:35.503Z,33.70
2023-02-06T18:02:04.507Z,34.03
2023-02-06T18:04:31.978Z,34.07
2023-02-06T18:06:59.202Z,33.96
2023-02-06T18:09:26.026Z,34.08
2023-02-06T18:11:52.867Z,34.08
2023-02-06T18:14:21.840Z,33.92
2023-02-06T18:16:48.791Z,34.13
2023-02-06T18:19:16.061Z,33.88
2023-02-06T18:21:42.807Z,33.93
2023-02-06T18:24:09.602Z,33.76
2023-02-06T18:26:36.963Z,34.17
2023-02-06T18:29:05.243Z,33.74
2023-02-06T18:31:34.669Z,34.14
2023-02-06T18:34:03.282Z,33.70
2023-02-06T18:36:30.434Z,33.96
2023-02-06T18:38:57.622Z,34.08
2023-02-06T18:41:27.638Z,34.05
2023-02-06T18:43:54.470Z,33.86
2023-02-06T18:46:21.297Z,33.97
2023-02-06T18:48:48.060Z,34.01
2023-02-06T18:51:17.067Z,34.21
2023-02-06T18:53:44.005Z,33.93
2023-02-06T18:56:10.980Z,34.05
2023-02-06T18:58:37.836Z,34.01
2023-02-06T19:01:11.297Z,35.01
2023-02-06T19:03:39.710Z,34.54
2023-02-06T19:06:09.928Z,34.44
2023-02-06T19:08:37.062Z,34.37
2023-02-06T19:11:03.888Z,34.76
2023-02-06T19:13:34.415Z,35.15
2023-02-06T19:16:05.972Z,35.24
2023-02-06T19:18:38.706Z,34.93
2023-02-06T19:21:11.160Z,35.15
2023-02-06T19:23:38.929Z,35.36
2023-02-06T19:26:09.247Z,35.26
2023-02-06T19:28:37.305Z,35.46
2023-02-06T19:31:04.657Z,35.44
2023-02-06T19:33:32.640Z,35.33
2023-02-06T19:35:59.542Z,35.31
2023-02-06T19:38:26.295Z,35.56
2023-02-06T19:40:53.701Z,35.24
2023-02-06T19:43:20.678Z,34.97
2023-02-06T19:45:47.518Z,35.07
2023-02-06T19:48:14.347Z,35.07
2023-02-06T19:50:42.062Z,35.49
2023-02-06T19:53:09.400Z,35.24
2023-02-06T19:55:36.670Z,35.43
2023-02-06T19:58:03.850Z,35.60
2023-02-06T20:00:30.599Z,35.53
2023-02-06T20:02:57.805Z,35.51
2023-02-06T20:05:27.238Z,35.87
2023-02-06T20:07:54.508Z,36.01
2023-02-06T20:10:22.014Z,35.95
2023-02-06T20:12:50.984Z,35.95
2023-02-06T20:15:17.762Z,35.51
2023-02-06T20:17:44.567Z,35.87
2023-02-06T20:20:12.117Z,35.96
2023-02-06T20:22:40.097Z,35.99
2023-02-06T20:25:07.112Z,36.03
2023-02-06T20:27:33.890Z,35.71
2023-02-06T20:30:00.702Z,35.86
2023-02-06T20:32:29.816Z,35.70
2023-02-06T20:34:57.904Z,35.78
2023-02-06T20:37:26.375Z,35.94
2023-02-06T20:39:53.299Z,35.94
2023-02-06T20:42:22.442Z,36.02
2023-02-06T20:44:50.478Z,35.97
2023-02-06T20:47:17.242Z,35.68
2023-02-06T20:49:44.271Z,36.22
2023-02-06T20:52:11.316Z,36.16
2023-02-06T20:54:38.292Z,35.92
2023-02-06T20:57:05.340Z,35.99
2023-02-06T20:59:32.363Z,36.06
2023-02-06T21:01:59.101Z,35.93
2023-02-06T21:04:26.158Z,35.93
2023-02-06T21:06:52.939Z,36.47
2023-02-06T21:09:20.336Z,36.35
2023-02-06T21:11:48.629Z,36.36
2023-02-06T21:14:15.625Z,36.48
2023-02-06T21:16:44.117Z,36.05
2023-02-06T21:19:12.026Z,36.44
2023-02-06T21:21:38.772Z,36.58
2023-02-06T21:24:06.170Z,36.17
2023-02-06T21:26:33.558Z,36.71
2023-02-06T21:29:03.029Z,36.50
2023-02-06T21:31:37.310Z,36.17
2023-02-06T21:34:07.454Z,36.49
2023-02-06T21:36:35.525Z,36.45
2023-02-06T21:39:02.300Z,36.74
2023-02-06T21:41:29.484Z,36.70
2023-02-06T21:43:56.340Z,36.59
2023-02-06T21:46:23.192Z,36.72
2023-02-06T21:48:52.295Z,36.49
2023-02-06T21:51:19.306Z,36.88
2023-02-06T21:53:46.253Z,36.60
2023-02-06T21:56:15.767Z,37.08
2023-02-06T21:58:42.807Z,37.43
2023-02-06T22:01:13.789Z,37.33
2023-02-06T22:03:40.500Z,36.96
2023-02-06T22:06:09.493Z,37.32
2023-02-06T22:08:36.685Z,36.93
2023-02-06T22:11:10.217Z,37.35
2023-02-06T22:13:36.899Z,37.37
2023-02-06T22:16:03.775Z,36.91
2023-02-06T22:18:30.458Z,37.10
2023-02-06T22:21:00.926Z,37.21
2023-02-06T22:23:28.093Z,37.04
2023-02-06T22:25:54.840Z,37.36
2023-02-06T22:28:22.009Z,37.16
2023-02-06T22:30:49.277Z,37.62
2023-02-06T22:33:16.177Z,37.22
2023-02-06T22:35:43.233Z,37.36
2023-02-06T22:38:09.987Z,37.27
2023-02-06T22:40:36.664Z,37.37
2023-02-06T22:43:03.409Z,37.44
2023-02-06T22:45:30.435Z,37.11
2023-02-06T22:47:57.238Z,37.48
2023-02-06T22:50:24.845Z,37.23
2023-02-06T22:52:54.970Z,37.33
2023-02-06T22:55:21.814Z,37.25
2023-02-06T22:57:48.810Z,36.86
2023-02-06T23:00:17.224Z,37.11
2023-02-06T23:02:44.410Z,36.85
2023-02-06T23:05:11.455Z,36.81
2023-02-06T23:07:38.501Z,36.99
2023-02-06T23:10:07.768Z,37.49
2023-02-06T23:12:35.425Z,37.20
2023-02-06T23:15:02.601Z,37.23
2023-02-06T23:17:29.572Z,37.39
2023-02-06T23:19:56.564Z,37.04
2023-02-06T23:22:23.458Z,37.02
2023-02-06T23:24:50.981Z,37.32
2023-02-06T23:27:19.968Z,37.12
2023-02-06T23:29:47.030Z,37.40
2023-02-06T23:32:16.086Z,37.44
2023-02-06T23:34:42.921Z,37.60
2023-02-06T23:37:09.784Z,37.36
2023-02-06T23:39:36.971Z,37.32
2023-02-06T23:42:04.314Z,37.64
2023-02-06T23:44:31.287Z,37.46
2023-02-06T23:46:58.148Z,37.65
2023-02-06T23:49:24.987Z,37.58
2023-02-06T23:51:52.078Z,38.12
2023-02-06T23:54:18.947Z,38.08
2023-02-06T23:56:45.843Z,38.26
2023-02-06T23:59:12.989Z,38.65
